Time;durP1;ratioP1;P1;durP2;ratioP2;P2;SDS_P1;SDS_P2;PMS_P1;PMS_P2;Temp;Humidity;BMP_temperature;BMP_pressure;BME280_temperature;BME280_humidity;BME280_pressure;Samples;Min_cycle;Max_cycle;Signal;HPM_P1;HPM_P2
2022/09/10 00:00:43;;;;;;;12.90;6.57;;;14.90;99.90;;;;;;5093457;28;20056;-68
2022/09/10 00:03:09;;;;;;;9.88;5.07;;;14.90;99.90;;;;;;5093506;28;20094;-68
2022/09/10 00:05:43;;;;;;;12.82;5.18;;;14.90;99.90;;;;;;5094364;28;20055;-69
2022/09/10 00:08:09;;;;;;;9.90;5.80;;;14.90;99.90;;;;;;5092306;28;20101;-68
2022/09/10 00:10:39;;;;;;;;;;;14.90;99.90;;;;;;5089326;28;20119;-70
2022/09/10 00:13:05;;;;;;;11.85;6.13;;;14.90;99.90;;;;;;5086856;28;19967;-68
2022/09/10 00:15:30;;;;;;;;;;;15.00;99.90;;;;;;5094698;28;20083;-68
2022/09/10 00:17:56;;;;;;;13.95;6.03;;;14.90;99.90;;;;;;5093059;28;19955;-68
2022/09/10 00:20:21;;;;;;;10.82;6.00;;;14.90;99.90;;;;;;5093240;28;20044;-68
2022/09/10 00:22:48;;;;;;;16.08;6.85;;;14.90;99.90;;;;;;5091055;28;20553;-69
2022/09/10 00:25:14;;;;;;;;;;;14.90;99.90;;;;;;5094125;28;20123;-69
2022/09/10 00:27:40;;;;;;;11.20;5.90;;;14.90;99.90;;;;;;5127233;27;19920;-68
2022/09/10 00:30:06;;;;;;;11.52;6.53;;;14.90;99.90;;;;;;5092618;28;20051;-68
2022/09/10 00:32:33;;;;;;;13.13;6.03;;;14.90;99.90;;;;;;5093434;28;20074;-68
2022/09/10 00:35:00;;;;;;;11.98;6.28;;;14.90;99.90;;;;;;5086532;28;20067;-68
2022/09/10 00:37:26;;;;;;;12.48;6.35;;;14.90;99.90;;;;;;5070991;28;20064;-68
2022/09/10 00:39:51;;;;;;;13.70;6.82;;;14.90;99.90;;;;;;5072641;28;20048;-69
2022/09/10 00:42:17;;;;;;;13.80;6.22;;;14.90;99.90;;;;;;5072902;28;20048;-67
2022/09/10 00:44:43;;;;;;;12.10;6.32;;;14.90;99.90;;;;;;5073774;28;20044;-68
2022/09/10 00:47:21;;;;;;;12.63;6.13;;;14.90;99.90;;;;;;5071819;28;20056;-68
2022/09/10 00:49:56;;;;;;;11.93;6.60;;;14.90;99.90;;;;;;5056857;28;20067;-68
2022/09/10 00:52:22;;;;;;;11.50;6.00;;;14.90;99.90;;;;;;5087541;28;20048;-68
2022/09/10 00:54:48;;;;;;;;;;;14.90;99.90;;;;;;5106675;28;20095;-68
2022/09/10 00:57:19;;;;;;;15.65;6.38;;;14.90;99.90;;;;;;5080439;28;19970;-68
2022/09/10 00:59:52;;;;;;;12.07;6.85;;;14.90;99.90;;;;;;5073506;28;20679;-68
2022/09/10 01:02:18;;;;;;;13.68;6.57;;;14.90;99.90;;;;;;5071536;28;20951;-68
2022/09/10 01:04:44;;;;;;;13.48;6.03;;;14.90;99.90;;;;;;5072397;28;20099;-68
2022/09/10 01:07:12;;;;;;;16.02;6.72;;;15.00;99.90;;;;;;5070636;28;20083;-67
2022/09/10 01:09:39;;;;;;;13.77;6.78;;;15.00;99.90;;;;;;5073326;28;20086;-69
2022/09/10 01:12:20;;;;;;;12.10;6.65;;;15.00;99.90;;;;;;5072456;28;20044;-68
2022/09/10 01:15:04;;;;;;;14.38;6.32;;;15.00;99.90;;;;;;5073238;28;20055;-68
2022/09/10 01:17:29;;;;;;;12.80;7.32;;;15.00;99.90;;;;;;5072807;28;20048;-67
2022/09/10 01:20:23;;;;;;;13.30;6.38;;;15.00;99.90;;;;;;5079692;28;20074;-68
2022/09/10 01:22:59;;;;;;;13.50;6.63;;;15.00;99.90;;;;;;5089482;28;20079;-68
2022/09/10 01:25:30;;;;;;;12.85;6.75;;;15.10;99.90;;;;;;5092828;28;20505;-69
2022/09/10 01:27:59;;;;;;;13.13;6.80;;;15.10;99.90;;;;;;5093139;28;20088;-68
2022/09/10 01:30:36;;;;;;;14.40;7.50;;;15.10;99.90;;;;;;5089251;28;20092;-68
2022/09/10 01:33:12;;;;;;;12.50;6.40;;;15.10;99.90;;;;;;5072179;28;20110;-68
2022/09/10 01:35:51;;;;;;;17.17;6.82;;;15.10;99.90;;;;;;5092880;28;20079;-68
2022/09/10 01:38:37;;;;;;;12.00;6.82;;;15.10;99.90;;;;;;5091617;28;20130;-69
2022/09/10 01:41:03;;;;;;;14.23;6.70;;;15.10;99.90;;;;;;5091648;28;20111;-69
2022/09/10 01:43:30;;;;;;;13.00;6.47;;;15.10;99.90;;;;;;5091938;28;20477;-68
2022/09/10 01:46:17;;;;;;;15.10;7.63;;;15.10;99.90;;;;;;5092132;28;20180;-67
2022/09/10 01:49:03;;;;;;;;;;;15.10;99.90;;;;;;5093257;28;20047;-68
2022/09/10 01:51:47;;;;;;;12.82;7.13;;;15.10;99.90;;;;;;5065899;28;19931;-68
2022/09/10 01:54:32;;;;;;;13.30;7.00;;;15.10;99.90;;;;;;5074875;28;20136;-68
2022/09/10 01:57:03;;;;;;;17.15;7.40;;;15.10;99.90;;;;;;5091478;28;20047;-68
2022/09/10 01:59:44;;;;;;;14.73;7.63;;;15.10;99.90;;;;;;5092509;28;20048;-68
2022/09/10 02:02:20;;;;;;;12.50;6.80;;;15.10;99.90;;;;;;5091660;28;20097;-66
2022/09/10 02:04:49;;;;;;;15.35;7.05;;;15.10;99.90;;;;;;5108558;28;20051;-66
2022/09/10 02:07:17;;;;;;;13.00;6.90;;;15.10;99.90;;;;;;5078165;28;20520;-66
2022/09/10 02:09:43;;;;;;;13.00;7.22;;;15.10;99.90;;;;;;5117092;27;20059;-66
2022/09/10 02:12:17;;;;;;;14.50;6.80;;;15.10;99.90;;;;;;5091490;28;20048;-66
2022/09/10 02:14:46;;;;;;;15.20;7.45;;;15.10;99.90;;;;;;5091025;28;20040;-66
2022/09/10 02:17:12;;;;;;;12.95;7.10;;;15.10;99.90;;;;;;5091317;28;20508;-66
2022/09/10 02:19:38;;;;;;;13.25;6.53;;;15.10;99.90;;;;;;5091396;28;20136;-66
2022/09/10 02:22:04;;;;;;;12.27;6.95;;;15.10;99.90;;;;;;5088710;28;20216;-68
2022/09/10 02:24:30;;;;;;;17.25;7.13;;;15.10;99.90;;;;;;5089790;28;20040;-66
2022/09/10 02:26:56;;;;;;;15.68;7.50;;;15.10;99.90;;;;;;5090657;28;20501;-65
2022/09/10 02:29:22;;;;;;;14.63;7.43;;;15.10;99.90;;;;;;5091535;28;20444;-65
2022/09/10 02:31:47;;;;;;;14.95;8.38;;;15.10;99.90;;;;;;5091549;28;20052;-67
2022/09/10 02:34:14;;;;;;;19.75;8.45;;;15.10;99.90;;;;;;5091110;28;20054;-68
2022/09/10 02:36:40;;;;;;;19.70;7.25;;;15.10;99.90;;;;;;5085366;28;20052;-67
2022/09/10 02:39:06;;;;;;;15.95;8.15;;;15.10;99.90;;;;;;5083549;28;20044;-71
2022/09/10 02:41:33;;;;;;;14.75;7.55;;;15.10;99.90;;;;;;5091358;28;20105;-67
2022/09/10 02:44:02;;;;;;;17.35;7.53;;;15.10;99.90;;;;;;5091749;28;20052;-67
2022/09/10 02:46:29;;;;;;;16.52;7.53;;;15.10;99.90;;;;;;5084664;28;20498;-67
2022/09/10 02:48:55;;;;;;;17.92;8.23;;;15.10;99.90;;;;;;5090579;28;20127;-68
2022/09/10 02:51:24;;;;;;;17.33;7.97;;;15.10;99.90;;;;;;5086744;28;20131;-67
2022/09/10 02:53:50;;;;;;;17.65;7.40;;;15.10;99.90;;;;;;5070925;28;20510;-68
2022/09/10 02:56:18;;;;;;;18.95;8.13;;;15.10;99.90;;;;;;5070638;28;20041;-68
2022/09/10 02:58:44;;;;;;;18.50;7.78;;;15.20;99.90;;;;;;5070951;28;20448;-67
2022/09/10 03:01:13;;;;;;;;;;;15.20;99.90;;;;;;5070900;28;20097;-67
2022/09/10 03:03:39;;;;;;;18.25;7.82;;;15.20;99.90;;;;;;5075351;28;19950;-69
2022/09/10 03:06:05;;;;;;;;;;;15.10;99.90;;;;;;5089901;28;20098;-67
2022/09/10 03:08:31;;;;;;;14.18;6.57;;;15.10;99.90;;;;;;5090789;28;19932;-67
2022/09/10 03:10:58;;;;;;;;;;;15.10;99.90;;;;;;5089764;28;20062;-67
2022/09/10 03:13:27;;;;;;;14.23;7.50;;;15.10;99.90;;;;;;5089533;28;19966;-67
2022/09/10 03:15:57;;;;;;;21.98;8.10;;;15.10;99.90;;;;;;5076295;28;20041;-68
2022/09/10 03:18:24;;;;;;;13.80;6.90;;;15.10;99.90;;;;;;5070363;28;20048;-67
2022/09/10 03:20:50;;;;;;;19.63;7.95;;;15.10;99.90;;;;;;5070418;28;20595;-69
2022/09/10 03:23:17;;;;;;;17.20;7.43;;;15.10;99.90;;;;;;5071711;28;20044;-67
2022/09/10 03:25:43;;;;;;;16.88;7.88;;;15.10;99.90;;;;;;5070797;28;20044;-67
2022/09/10 03:28:09;;;;;;;16.75;7.97;;;15.10;99.90;;;;;;5086452;28;20441;-69
2022/09/10 03:30:36;;;;;;;20.08;8.80;;;15.10;99.90;;;;;;5070504;28;20092;-68
2022/09/10 03:33:02;;;;;;;23.45;7.78;;;15.10;99.90;;;;;;5070180;28;20514;-67
2022/09/10 03:35:28;;;;;;;15.57;7.50;;;15.10;99.90;;;;;;5070025;28;20144;-67
2022/09/10 03:37:54;;;;;;;17.92;7.80;;;15.10;99.90;;;;;;5082667;28;20134;-67
2022/09/10 03:40:20;;;;;;;16.60;8.15;;;15.10;99.90;;;;;;5077541;28;20049;-68
2022/09/10 03:42:45;;;;;;;23.13;9.27;;;15.10;99.90;;;;;;5070422;28;20462;-68
2022/09/10 03:45:12;;;;;;;18.38;8.20;;;15.10;99.90;;;;;;5070548;28;20052;-71
2022/09/10 03:47:39;;;;;;;19.05;8.55;;;15.10;99.90;;;;;;5070158;28;20049;-67
2022/09/10 03:50:05;;;;;;;17.23;8.52;;;15.20;99.90;;;;;;5070684;28;20054;-67
2022/09/10 03:52:31;;;;;;;22.15;8.50;;;15.20;99.90;;;;;;5087897;28;20052;-67
2022/09/10 03:54:57;;;;;;;18.98;8.48;;;15.20;99.90;;;;;;5090992;28;20059;-68
2022/09/10 03:57:24;;;;;;;20.25;7.85;;;15.20;99.90;;;;;;5086048;28;20538;-67
2022/09/10 03:59:50;;;;;;;21.25;8.25;;;15.10;99.90;;;;;;5070600;28;20050;-68
2022/09/10 04:02:17;;;;;;;16.85;8.50;;;15.20;99.90;;;;;;5069412;28;20508;-67
2022/09/10 04:04:42;;;;;;;19.80;8.38;;;15.20;99.90;;;;;;5078907;28;20047;-67
2022/09/10 04:07:11;;;;;;;21.13;8.75;;;15.20;99.90;;;;;;5068538;28;20044;-67
2022/09/10 04:09:37;;;;;;;24.73;9.25;;;15.10;99.90;;;;;;5069865;28;20149;-68
2022/09/10 04:12:02;;;;;;;18.08;8.43;;;15.10;99.90;;;;;;5070156;28;20086;-67
2022/09/10 04:14:28;;;;;;;20.83;8.35;;;15.20;99.90;;;;;;5069571;28;20134;-67
2022/09/10 04:16:55;;;;;;;19.75;8.13;;;15.20;99.90;;;;;;5080701;28;20044;-67
2022/09/10 04:19:21;;;;;;;18.25;8.88;;;15.20;99.90;;;;;;5090046;28;20052;-68
2022/09/10 04:21:47;;;;;;;22.75;8.98;;;15.20;99.90;;;;;;5082691;28;20507;-68
2022/09/10 04:24:13;;;;;;;23.70;9.63;;;15.20;99.90;;;;;;5070338;28;20044;-68
2022/09/10 04:26:39;;;;;;;17.70;8.77;;;15.20;99.90;;;;;;5068443;28;20048;-68
2022/09/10 04:29:04;;;;;;;19.38;10.40;;;15.20;99.90;;;;;;5070281;28;20041;-68
2022/09/10 04:31:30;;;;;;;24.70;10.23;;;15.20;99.90;;;;;;5069659;28;20445;-67
2022/09/10 04:33:56;;;;;;;23.50;10.13;;;15.20;99.90;;;;;;5077930;28;20051;-67
2022/09/10 04:36:22;;;;;;;;;;;15.20;99.90;;;;;;5088490;28;20148;-68
2022/09/10 04:38:48;;;;;;;19.98;9.45;;;15.20;99.90;;;;;;5090497;28;20409;-67
2022/09/10 04:41:14;;;;;;;24.25;9.88;;;15.20;99.90;;;;;;5072525;28;20048;-67
2022/09/10 04:43:40;;;;;;;20.48;9.25;;;15.20;99.90;;;;;;5079775;28;20135;-68
2022/09/10 04:46:05;;;;;;;19.35;9.80;;;15.20;99.90;;;;;;5073358;28;20151;-67
2022/09/10 04:48:32;;;;;;;19.15;10.30;;;15.20;99.90;;;;;;5073221;28;20106;-67
2022/09/10 04:50:58;;;;;;;21.50;10.23;;;15.20;99.90;;;;;;5071880;28;20044;-68
2022/09/10 04:53:26;;;;;;;21.33;10.32;;;15.20;99.90;;;;;;5072934;28;20054;-67
2022/09/10 04:55:54;;;;;;;25.42;10.27;;;15.20;99.90;;;;;;5073602;28;20099;-68
2022/09/10 04:58:20;;;;;;;22.73;10.07;;;15.20;99.90;;;;;;5073239;28;20079;-71
2022/09/10 05:00:46;;;;;;;31.42;11.35;;;15.20;99.90;;;;;;5073713;28;20048;-67
2022/09/10 05:03:13;;;;;;;34.42;10.40;;;15.20;99.90;;;;;;5092946;28;20051;-67
2022/09/10 05:05:41;;;;;;;27.55;11.18;;;15.20;99.90;;;;;;5092730;28;20101;-67
2022/09/10 05:08:07;;;;;;;24.55;11.32;;;15.20;99.90;;;;;;5091003;28;20485;-67
2022/09/10 05:10:35;;;;;;;26.48;10.60;;;15.20;99.90;;;;;;5079221;28;20055;-67
2022/09/10 05:13:01;;;;;;;28.88;11.52;;;15.10;99.90;;;;;;5073085;28;20060;-67
2022/09/10 05:15:27;;;;;;;;;;;15.20;99.90;;;;;;5073144;28;20048;-68
2022/09/10 05:17:52;;;;;;;29.33;12.73;;;15.20;99.90;;;;;;5073061;28;19920;-68
2022/09/10 05:20:18;;;;;;;30.52;12.30;;;15.20;99.90;;;;;;5074296;28;20052;-67
2022/09/10 05:22:44;;;;;;;;;;;15.10;99.90;;;;;;5070844;28;20080;-67
2022/09/10 05:25:10;;;;;;;29.98;11.75;;;15.20;99.90;;;;;;5073017;28;19971;-67
2022/09/10 05:27:35;;;;;;;26.63;11.55;;;15.20;99.90;;;;;;5077695;28;20040;-67
2022/09/10 05:30:01;;;;;;;37.13;13.18;;;15.20;99.90;;;;;;5092562;28;20126;-67
2022/09/10 05:32:28;;;;;;;34.85;12.25;;;15.20;99.90;;;;;;5083723;28;20489;-67
2022/09/10 05:34:54;;;;;;;29.92;11.63;;;15.20;99.90;;;;;;5091672;28;20066;-68
2022/09/10 05:37:20;;;;;;;32.00;11.85;;;15.20;99.90;;;;;;5086515;28;20082;-67
2022/09/10 05:39:47;;;;;;;32.30;12.52;;;15.20;99.90;;;;;;5072313;28;20553;-67
2022/09/10 05:42:13;;;;;;;31.15;11.95;;;15.20;99.90;;;;;;5071063;28;20052;-67
2022/09/10 05:44:40;;;;;;;27.20;10.93;;;15.30;99.90;;;;;;5072176;28;20048;-67
2022/09/10 05:47:06;;;;;;;27.85;10.93;;;15.30;99.90;;;;;;5071190;28;20052;-68
2022/09/10 05:49:32;;;;;;;26.55;11.00;;;15.30;99.90;;;;;;5072066;28;20460;-67
2022/09/10 05:51:58;;;;;;;28.98;12.65;;;15.30;99.90;;;;;;5083416;28;20044;-67
2022/09/10 05:54:24;;;;;;;27.60;11.77;;;15.30;99.90;;;;;;5087835;28;20539;-70
2022/09/10 05:56:50;;;;;;;;;;;15.40;99.90;;;;;;5072446;28;20131;-68
2022/09/10 05:59:15;;;;;;;25.50;9.90;;;15.40;99.90;;;;;;5082840;28;20015;-67
2022/09/10 06:01:41;;;;;;;21.73;10.57;;;15.40;99.90;;;;;;5091347;28;20055;-67
2022/09/10 06:04:08;;;;;;;28.90;11.30;;;15.40;99.90;;;;;;5092483;28;20154;-68
2022/09/10 06:06:34;;;;;;;31.70;10.52;;;15.40;99.90;;;;;;5088976;28;20059;-67
2022/09/10 06:08:59;;;;;;;26.52;12.07;;;15.40;99.90;;;;;;5090827;28;20393;-67
2022/09/10 06:11:25;;;;;;;27.55;11.57;;;15.40;99.90;;;;;;5072386;28;20057;-70
2022/09/10 06:13:52;;;;;;;36.80;12.48;;;15.40;99.90;;;;;;5091816;28;20066;-67
2022/09/10 06:16:17;;;;;;;28.80;11.23;;;15.40;99.90;;;;;;5080976;28;20103;-69
2022/09/10 06:18:43;;;;;;;26.73;11.00;;;15.50;99.90;;;;;;5071390;28;20044;-68
2022/09/10 06:21:13;;;;;;;31.42;13.07;;;15.50;99.90;;;;;;5086831;28;20564;-69
2022/09/10 06:23:39;;;;;;;28.13;11.07;;;15.40;99.90;;;;;;5090484;28;20055;-69
2022/09/10 06:26:09;;;;;;;25.52;11.90;;;15.50;99.90;;;;;;5090924;28;20048;-70
2022/09/10 06:28:34;;;;;;;26.77;10.93;;;15.50;99.90;;;;;;5078872;28;20552;-69
2022/09/10 06:31:04;;;;;;;26.13;11.90;;;15.60;99.90;;;;;;5090373;28;20077;-69
2022/09/10 06:33:30;;;;;;;27.77;10.80;;;15.50;99.90;;;;;;5086724;28;20052;-70
2022/09/10 06:35:58;;;;;;;32.80;11.88;;;15.60;99.90;;;;;;5085411;28;20535;-70
2022/09/10 06:38:26;;;;;;;26.08;11.82;;;15.60;99.90;;;;;;5091109;28;20043;-69
2022/09/10 06:40:58;;;;;;;30.13;11.48;;;15.60;99.90;;;;;;5091169;28;20054;-68
2022/09/10 06:43:27;;;;;;;27.23;11.77;;;15.60;99.90;;;;;;5091752;28;20048;-70
2022/09/10 06:45:54;;;;;;;25.67;12.02;;;15.70;99.90;;;;;;5086838;28;20083;-71
2022/09/10 06:48:26;;;;;;;28.15;11.30;;;15.70;99.90;;;;;;5080147;28;20041;-68
2022/09/10 06:50:54;;;;;;;27.92;11.52;;;15.70;99.90;;;;;;5069735;28;20037;-71
2022/09/10 06:53:21;;;;;;;26.63;10.70;;;15.80;99.90;;;;;;5081811;28;20055;-68
2022/09/10 06:55:51;;;;;;;26.15;10.30;;;15.80;99.90;;;;;;5086016;28;20102;-68
2022/09/10 06:58:19;;;;;;;29.27;11.23;;;15.80;99.90;;;;;;5071149;28;20048;-66
2022/09/10 07:00:46;;;;;;;25.83;10.90;;;15.80;99.90;;;;;;5070704;28;20080;-68
2022/09/10 07:03:14;;;;;;;24.13;9.93;;;15.80;99.90;;;;;;5070844;28;20052;-69
2022/09/10 07:05:40;;;;;;;25.08;11.18;;;15.80;99.90;;;;;;5070186;28;20128;-68
2022/09/10 07:08:06;;;;;;;;;;;15.90;99.90;;;;;;5069675;28;20052;-68
2022/09/10 07:10:32;;;;;;;26.80;11.40;;;15.90;99.90;;;;;;5070521;28;19973;-69
2022/09/10 07:13:00;;;;;;;22.42;9.35;;;15.90;99.90;;;;;;5080074;28;20378;-68
2022/09/10 07:15:27;;;;;;;21.90;9.75;;;15.90;99.90;;;;;;5072535;28;20443;-70
2022/09/10 07:17:53;;;;;;;21.48;9.98;;;15.90;99.90;;;;;;5081073;28;20056;-68
2022/09/10 07:20:19;;;;;;;24.45;9.98;;;16.00;99.90;;;;;;5091143;28;20079;-69
2022/09/10 07:22:45;;;;;;;;;;;16.00;99.90;;;;;;5088630;28;20048;-68
2022/09/10 07:25:11;;;;;;;25.20;9.52;;;16.10;99.90;;;;;;5091117;28;20281;-68
2022/09/10 07:27:37;;;;;;;20.23;9.88;;;16.10;99.90;;;;;;5089039;28;20063;-68
2022/09/10 07:30:03;;;;;;;23.70;10.40;;;16.20;99.90;;;;;;5091047;28;20044;-68
2022/09/10 07:32:32;;;;;;;21.08;10.88;;;16.30;99.90;;;;;;5045999;28;20074;-67
2022/09/10 07:34:58;;;;;;;22.70;9.60;;;16.30;99.90;;;;;;5077770;28;20057;-68
2022/09/10 07:37:24;;;;;;;24.10;10.95;;;16.40;99.90;;;;;;5087864;28;20043;-68
2022/09/10 07:39:50;;;;;;;21.38;9.77;;;16.40;99.90;;;;;;5089468;28;20123;-69
2022/09/10 07:42:16;;;;;;;22.40;9.57;;;16.50;99.90;;;;;;5089405;28;20244;-69
2022/09/10 07:44:42;;;;;;;18.98;9.82;;;16.60;99.90;;;;;;5089669;28;20051;-67
2022/09/10 07:47:07;;;;;;;21.50;9.25;;;16.60;99.90;;;;;;5088924;28;20040;-69
2022/09/10 07:49:33;;;;;;;;;;;16.70;99.90;;;;;;5090138;28;20048;-73
2022/09/10 07:51:59;;;;;;;21.20;8.98;;;16.70;99.90;;;;;;5085537;28;20008;-69
2022/09/10 07:54:25;;;;;;;20.15;9.38;;;16.80;99.90;;;;;;5090000;28;20086;-71
2022/09/10 07:56:51;;;;;;;18.33;8.43;;;16.90;99.90;;;;;;5089696;28;20063;-70
2022/09/10 07:59:17;;;;;;;16.90;8.60;;;17.00;99.90;;;;;;5087011;28;20119;-71
2022/09/10 08:01:43;;;;;;;20.95;8.20;;;17.10;99.90;;;;;;5095635;28;20048;-69
2022/09/10 08:04:09;;;;;;;20.90;8.55;;;17.10;99.90;;;;;;5089343;28;20052;-70
2022/09/10 08:06:34;;;;;;;;;;;17.20;99.90;;;;;;5087386;28;20047;-73
2022/09/10 08:09:02;;;;;;;17.65;8.38;;;17.30;99.90;;;;;;5086643;28;19934;-70
2022/09/10 08:11:28;;;;;;;43.13;8.95;;;17.40;99.90;;;;;;5088812;28;20039;-69
2022/09/10 08:13:55;;;;;;;;;;;17.40;99.90;;;;;;5090036;28;20926;-68
2022/09/10 08:16:23;;;;;;;17.42;7.80;;;17.40;99.90;;;;;;5075671;28;20317;-66
2022/09/10 08:18:52;;;;;;;14.60;6.97;;;17.50;99.90;;;;;;5096135;28;20039;-67
2022/09/10 08:21:18;;;;;;;18.17;8.70;;;17.50;99.90;;;;;;5093355;28;20400;-67
2022/09/10 08:23:56;;;;;;;16.35;7.68;;;17.50;99.90;;;;;;5093247;28;20050;-68
2022/09/10 08:26:23;;;;;;;16.13;8.32;;;17.50;99.90;;;;;;5091079;28;20035;-68
2022/09/10 08:28:50;;;;;;;18.95;9.00;;;17.50;99.90;;;;;;5091930;28;20059;-67
2022/09/10 08:31:16;;;;;;;18.52;7.63;;;17.40;99.90;;;;;;5089107;28;20043;-68
2022/09/10 08:33:48;;;;;;;16.23;8.15;;;17.40;99.90;;;;;;5071355;28;20083;-69
2022/09/10 08:36:15;;;;;;;17.73;8.25;;;17.40;99.90;;;;;;5080166;28;20570;-68
2022/09/10 08:38:42;;;;;;;11.68;6.32;;;17.40;99.90;;;;;;5086670;28;20052;-68
2022/09/10 08:41:39;;;;;;;14.00;6.85;;;17.30;99.90;;;;;;5091397;28;20204;-68
2022/09/10 08:44:08;;;;;;;;;;;17.30;99.90;;;;;;5083934;28;20052;-69
2022/09/10 08:46:41;;;;;;;14.23;7.30;;;17.30;99.90;;;;;;5090739;28;20577;-68
2022/09/10 08:49:35;;;;;;;16.73;7.88;;;17.40;99.90;;;;;;5093480;28;20131;-69
2022/09/10 08:52:10;;;;;;;17.45;7.47;;;17.60;99.90;;;;;;5091087;28;20052;-68
2022/09/10 08:54:47;;;;;;;13.35;7.72;;;17.80;99.90;;;;;;5093840;28;20122;-68
2022/09/10 08:57:44;;;;;;;18.75;8.23;;;18.00;99.90;;;;;;5093655;28;20043;-68
2022/09/10 09:00:20;;;;;;;16.33;7.30;;;18.20;99.90;;;;;;5093878;28;20481;-68
2022/09/10 09:03:09;;;;;;;17.08;8.40;;;18.40;99.90;;;;;;5092781;28;20067;-68
2022/09/10 09:05:54;;;;;;;13.70;6.57;;;18.50;99.90;;;;;;5073631;28;20048;-69
2022/09/10 09:08:24;;;;;;;13.02;7.25;;;18.50;99.90;;;;;;5080061;28;20088;-68
2022/09/10 09:10:58;;;;;;;12.98;6.10;;;18.50;99.90;;;;;;5071474;28;20052;-67
2022/09/10 09:13:45;;;;;;;10.82;6.63;;;18.40;99.90;;;;;;5073226;28;20044;-67
2022/09/10 09:16:34;;;;;;;13.57;6.05;;;18.40;99.90;;;;;;5072842;28;20110;-68
2022/09/10 09:19:09;;;;;;;14.23;6.88;;;18.50;99.90;;;;;;5090970;28;20080;-67
2022/09/10 09:21:44;;;;;;;18.52;7.10;;;18.60;99.90;;;;;;5089748;28;20520;-69
2022/09/10 09:24:21;;;;;;;13.95;6.95;;;18.60;99.90;;;;;;5091972;28;20056;-68
2022/09/10 09:26:48;;;;;;;13.75;6.80;;;18.60;99.90;;;;;;5091532;28;20139;-69
2022/09/10 09:29:39;;;;;;;13.05;6.75;;;18.60;99.90;;;;;;5092788;28;20055;-69
2022/09/10 09:32:05;;;;;;;12.90;5.70;;;18.80;99.90;;;;;;5092232;28;20036;-69
2022/09/10 09:34:40;;;;;;;;;;;18.90;99.90;;;;;;5092076;28;20060;-68
2022/09/10 09:37:23;;;;;;;12.73;6.22;;;19.00;99.90;;;;;;5090617;28;19927;-69
2022/09/10 09:40:11;;;;;;;11.35;6.03;;;19.10;99.90;;;;;;5092632;28;20040;-69
2022/09/10 09:43:00;;;;;;;16.60;5.72;;;19.10;99.90;;;;;;5092577;28;20052;-68
2022/09/10 09:45:28;;;;;;;12.05;6.20;;;19.10;99.90;;;;;;5092088;28;20040;-68
2022/09/10 09:47:54;;;;;;;11.38;6.18;;;19.10;99.90;;;;;;5086391;28;20090;-67
2022/09/10 09:50:21;;;;;;;10.73;5.90;;;19.20;99.90;;;;;;5091495;28;20097;-68
2022/09/10 09:52:49;;;;;;;13.95;5.97;;;19.30;99.90;;;;;;5085570;28;20054;-68
2022/09/10 09:55:39;;;;;;;9.60;5.68;;;19.40;99.90;;;;;;5092065;28;20047;-68
2022/09/10 09:58:23;;;;;;;10.75;5.40;;;19.50;99.90;;;;;;5083429;28;20082;-67
2022/09/10 10:01:02;;;;;;;12.27;5.18;;;19.60;99.90;;;;;;5089282;28;20047;-68
2022/09/10 10:03:30;;;;;;;9.77;4.05;;;19.70;99.90;;;;;;5092463;28;20131;-70
2022/09/10 10:06:04;;;;;;;9.25;4.68;;;19.80;99.90;;;;;;5089195;28;20786;-77
2022/09/10 10:08:36;;;;;;;10.50;4.20;;;19.90;99.90;;;;;;5088366;28;20054;-72
2022/09/10 10:11:03;;;;;;;9.75;4.38;;;20.00;99.90;;;;;;5088807;28;20040;-69
2022/09/10 10:13:43;;;;;;;11.40;5.38;;;20.00;99.90;;;;;;5091163;28;20044;-68
2022/09/10 10:16:31;;;;;;;9.93;5.35;;;20.10;99.90;;;;;;5090635;28;20051;-69
2022/09/10 10:18:56;;;;;;;11.20;6.03;;;20.10;99.90;;;;;;5090122;28;20048;-68
2022/09/10 10:21:28;;;;;;;;;;;20.10;99.90;;;;;;5090762;28;20051;-70
2022/09/10 10:23:54;;;;;;;9.65;5.00;;;20.10;99.90;;;;;;5088733;28;19965;-71
2022/09/10 10:26:19;;;;;;;;;;;20.20;99.90;;;;;;5104685;28;20049;-73
2022/09/10 10:28:50;;;;;;;11.98;4.85;;;20.40;99.90;;;;;;5091548;28;19920;-71
2022/09/10 10:31:17;;;;;;;7.88;4.35;;;20.80;99.90;;;;;;5091058;28;20489;-70
2022/09/10 10:34:00;;;;;;;7.63;4.10;;;21.00;99.90;;;;;;5086837;28;20123;-69
2022/09/10 10:36:55;;;;;;;7.25;3.95;;;21.30;99.90;;;;;;5071549;28;20122;-70
2022/09/10 10:39:30;;;;;;;8.48;3.35;;;21.50;99.90;;;;;;5091253;28;20486;-69
2022/09/10 10:42:09;;;;;;;6.03;3.67;;;21.80;99.90;;;;;;5091014;28;20055;-70
2022/09/10 10:44:57;;;;;;;8.05;3.80;;;22.10;99.90;;;;;;5090670;28;20054;-70
2022/09/10 10:47:38;;;;;;;6.22;3.40;;;22.30;99.90;;;;;;5081800;28;20411;-70
2022/09/10 10:50:19;;;;;;;5.72;3.00;;;22.50;99.90;;;;;;5087217;28;20043;-72
2022/09/10 10:53:17;;;;;;;8.35;4.13;;;22.60;99.90;;;;;;5074854;28;20127;-69
2022/09/10 10:55:57;;;;;;;9.40;3.13;;;22.60;99.90;;;;;;5086533;28;20045;-72
2022/09/10 10:58:32;;;;;;;6.28;3.63;;;22.70;99.90;;;;;;5071337;28;20091;-75
2022/09/10 11:01:22;;;;;;;8.77;3.22;;;22.70;99.90;;;;;;5083272;28;20501;-75
2022/09/10 11:04:09;;;;;;;8.07;3.30;;;22.70;99.90;;;;;;5064494;28;20098;-70
2022/09/10 11:06:40;;;;;;;6.93;3.40;;;22.70;99.90;;;;;;5069431;28;20132;-74
2022/09/10 11:09:20;;;;;;;9.02;3.53;;;22.80;99.90;;;;;;5070621;28;20474;-75
2022/09/10 11:12:02;;;;;;;8.95;3.58;;;22.80;99.90;;;;;;5071062;28;20102;-73
2022/09/10 11:14:50;;;;;;;13.18;4.28;;;22.80;99.90;;;;;;5070957;28;20135;-68
2022/09/10 11:17:33;;;;;;;6.40;3.10;;;22.90;99.90;;;;;;5069015;28;20084;-73
2022/09/10 11:20:16;;;;;;;7.82;3.38;;;23.00;99.90;;;;;;5073139;28;20052;-67
2022/09/10 11:22:54;;;;;;;6.10;3.28;;;23.20;99.90;;;;;;5069162;28;20098;-70
2022/09/10 11:25:23;;;;;;;6.47;2.92;;;23.50;99.90;;;;;;5089410;28;20397;-70
2022/09/10 11:27:54;;;;;;;8.40;3.50;;;24.00;99.90;;;;;;5089892;28;20416;-68
2022/09/10 11:30:21;;;;;;;9.57;3.97;;;24.40;99.90;;;;;;5091075;28;20055;-66
2022/09/10 11:33:13;;;;;;;6.43;3.20;;;24.60;99.90;;;;;;5090675;28;20057;-69
2022/09/10 11:35:47;;;;;;;4.53;2.80;;;25.10;99.90;;;;;;5081490;28;20060;-69
2022/09/10 11:38:53;;;;;;;6.85;2.95;;;26.30;99.90;;;;;;5088988;28;20036;-66
2022/09/10 11:41:22;;;;;;;3.50;2.38;;;26.90;99.90;;;;;;5064027;28;20121;-66
2022/09/10 11:44:25;;;;;;;5.53;2.72;;;27.00;99.90;;;;;;5066994;28;20056;-67
2022/09/10 11:47:09;;;;;;;5.43;2.42;;;27.30;99.10;;;;;;5084466;28;20548;-73
2022/09/10 11:49:42;;;;;;;5.90;2.88;;;;;;;;;;5090868;28;20048;-74
2022/09/10 11:52:10;;;;;;;7.78;3.03;;;;;;;;;;5082174;28;20487;-68
2022/09/10 11:54:37;;;;;;;5.22;2.92;;;;;;;;;;5094652;28;20062;-72
2022/09/10 11:57:06;;;;;;;6.15;3.10;;;;;;;;;;5093260;28;20062;-72
2022/09/10 11:59:45;;;;;;;4.43;2.25;;;;;;;;;;5094981;28;20109;-71
2022/09/10 12:02:14;;;;;;;5.07;2.50;;;;;;;;;;5093711;28;20127;-68
2022/09/10 12:04:50;;;;;;;6.20;2.63;;;;;;;;;;5093679;28;20058;-70
2022/09/10 12:07:16;;;;;;;5.95;2.40;;;;;;;;;;5091860;28;20055;-68
2022/09/10 12:09:47;;;;;;;5.22;2.28;;;;;;;;;;5089780;28;20060;-71
2022/09/10 12:12:26;;;;;;;3.25;2.00;;;;;;;;;;5093840;28;20048;-69
2022/09/10 12:14:52;;;;;;;5.82;2.88;;;;;;;;;;5094814;28;20052;-68
2022/09/10 12:17:23;;;;;;;5.53;2.88;;;;;;;;;;5084790;28;20062;-67
2022/09/10 12:19:52;;;;;;;7.13;2.65;;;;;;;;;;5074271;28;20078;-68
2022/09/10 12:22:25;;;;;;;4.90;2.35;;;;;;;;;;5080706;28;20165;-68
2022/09/10 12:24:53;;;;;;;5.18;1.80;;;;;;;;;;5091467;28;20040;-68
2022/09/10 12:27:19;;;;;;;3.60;2.00;;;;;;;;;;5088695;28;20048;-69
2022/09/10 12:29:46;;;;;;;3.85;1.70;;;;;;;;;;5090433;28;20494;-71
2022/09/10 12:32:21;;;;;;;5.63;2.72;;;;;;;;;;5092834;28;20047;-69
2022/09/10 12:34:48;;;;;;;5.85;2.70;;;;;;;;;;5123676;27;20568;-68
2022/09/10 12:37:26;;;;;;;5.03;2.90;;;;;;;;;;5088569;28;20058;-68
2022/09/10 12:40:16;;;;;;;5.65;2.78;;;;;;;;;;5091948;28;20079;-68
2022/09/10 12:42:44;;;;;;;5.07;2.90;;;;;;;;;;5072736;28;20055;-67
2022/09/10 12:45:10;;;;;;;6.32;2.80;;;;;;;;;;5093462;28;20040;-68
2022/09/10 12:47:41;;;;;;;6.47;2.80;;;;;;;;;;5093483;28;20047;-68
2022/09/10 12:50:37;;;;;;;5.18;2.90;;;;;;;;;;5092802;28;20036;-67
2022/09/10 12:53:12;;;;;;;6.47;3.03;;;;;;;;;;5077270;28;20142;-68
2022/09/10 12:55:53;;;;;;;4.78;2.53;;;;;;;;;;5088838;28;20073;-70
2022/09/10 12:58:28;;;;;;;5.18;2.92;;;;;;;;;;5084455;28;20063;-67
2022/09/10 13:00:54;;;;;;;7.10;3.60;;;;;;;;;;5093523;28;20052;-68
2022/09/10 13:03:21;;;;;;;6.32;3.13;;;;;;;;;;5124777;27;20594;-67
2022/09/10 13:05:50;;;;;;;4.18;2.60;;;;;;;;;;5093203;28;20119;-71
2022/09/10 13:08:19;;;;;;;4.40;2.70;;;;;;;;;;5091839;28;20075;-68
2022/09/10 13:10:56;;;;;;;7.38;2.80;;;;;;;;;;5092773;28;20118;-67